Gerlach, NV

2:04 AM PDT on April 19, 2015 (GMT -0700)
RAWS | | Change Station
CLOSE
Current Station
Personal Weather Station
Location: Gerlach, NV
Elevation: 6890 ft
Nearby Weather Stations

Elev 6890 ft 41.01 °N, 119.57 °W | Updated 27 minutes ago

Clear
Clear
44 °F
Feels Like 37 °F
N
14
Wind Variable Wind from NE
Gusts 23.0 mph

Today
High -- | Low -- °F
--% Chance of Precip.
Yesterday
High -- | Low -- °F
Precip. -- in
6:13 AM 7:43 PM
New Moon, 1% visible
Pressure 30.07 in
Visibility 10.0 miles
Clouds Clear
Windchill 37 °F
Dew Point 12 °F
Humidity 27%
Rainfall in
Snow Depth Not available.
UV 0 out of 12
Pollen 10.70 out of 12
Air Quality Not available.
Flu Activity Sporadic
METAR KAAT 190855Z AUTO 03006KT 10SM CLR 08/M06 A3015 RMK AO2 SLP183 T00781061 50003

More Conditions Fewer Conditions

Pressure 30.07 in
Visibility 10.0 miles
Clouds Clear
Windchill 37 °F
Dew Point 12 °F
Humidity 27%
Rainfall in
Snow Depth Not available.
UV 0 out of 12
Pollen 10.70 out of 12
Air Quality Not available.
Flu Activity Sporadic
METAR KAAT 190855Z AUTO 03006KT 10SM CLR 08/M06 A3015 RMK AO2 SLP183 T00781061 50003

More Conditions Fewer Conditions

10-Day Weather Forecast

Almanac

Astronomy

Apr. 19, 2015 Rise Set
Actual Time
Civil Twilight
Nautical Twilight
Astronomical Twilight
Moon
Length of Visible Light
Length of Day
Tomorrow will be .
, % of the Moon is Illuminated

Today's Extremes

State Highs State Lows

Community

WunderPhotos

Upload Photos

1,814,723 photos uploaded!

WunderBlogs® & News

Nearby

Air Quality

  Air Quality AQ Index Pollutant
Not available.

Snow Depth

Station Depth Elevation

Earthquake Activity

City Distance Mag. Time & Date
Minimum magnitude displayed is 2.5.

Coastal Water Temperatures

Place Temperature

Stations

Nearby Weather Stations

Station Location Temp. Windchill Dew Point Humidity Wind Precip. Elev Updated Type